Flugplatz Eisenach/Kindel (EDGE)

Hier findest Du alle Informationen zum Flugplatz Eisenach/Kindel (EDGE).

Informationen für Piloten zum Flugplatz Eisenach/Kindel

Hier findest Du alle relevanten Informationen, die Du als Pilot benötigst, um Eisenach/Kindel anzufliegen.

Flugplatz: Eisenach/Kindel ICAO-Code: EDGE
Frequenz Turm: 119,750 Mhz GAFOR Gebiet: 24
Frequenz Ground: 119,750 Mhz Mogas: ja
Platzrunde: N 1900 ft Landegebühr: -
Platzhöhe: 1.101 ft Sunrise: 03:01 Uhr UTC
Pisten: 10/28 - 1.500 m x 55 m, BIT Sunset: 19:38 Uhr UTC

Flugwetter am Flugplatz Eisenach/Kindel

Die METAR Information stammen aus EDDE (33.43 km entfernt).

METAR Code:
2024/06/13 07:50
EDDE 130750Z AUTO VRB03KT 9999 SCT025 12/06 Q1019 NOSIG

Flugschulen am Flugplatz Eisenach/Kindel

Am Flugplatz Eisenach/Kindel gibt es leider keine Flugschule.

Benachbarte Flugplätze und Flugschulen

Es gibt 9 weitere Flugplätze in einem Umkreis von 50 km um den Flugplatz Eisenach/Kindel.

Jetzt anmelden

Passwort vergessen

Umfrage Archiv

Wie häufig haltet Ihr die Halbkreisflugregel ein?

Eher häufig!
36 %
Immer!
30.7 %
Hin und wieder!
16.7 %
Nie!
9.5 %
Eher selten!
7.2 %
Stimmen: 264 | Diskussion
Anzeige: Roland Aircraft
Statistik Alle Mitglieder

Aktuell sind 22 Besucher online, davon 4 Mitglieder und 18 Gäste.


Mitglieder online:
Schnickes  JPM  raller  DIFH 

Anzeige: EasyVFR